sensor_id;sensor_type;location;lat;lon;timestamp;P1;durP1;ratioP1;P2;durP2;ratioP2
19251;SDS011;9760;50.944;5.304;2022-09-09T00:00:30;2.50;;;1.03;;
19251;SDS011;9760;50.944;5.304;2022-09-09T00:03:02;7.47;;;1.27;;
19251;SDS011;9760;50.944;5.304;2022-09-09T00:06:28;4.33;;;1.50;;
19251;SDS011;9760;50.944;5.304;2022-09-09T00:11:43;4.00;;;1.10;;
19251;SDS011;9760;50.944;5.304;2022-09-09T00:22:37;4.80;;;1.30;;
19251;SDS011;9760;50.944;5.304;2022-09-09T00:25:14;2.47;;;1.23;;
19251;SDS011;9760;50.944;5.304;2022-09-09T00:27:48;1.93;;;1.00;;
19251;SDS011;9760;50.944;5.304;2022-09-09T00:30:19;4.07;;;1.37;;
19251;SDS011;9760;50.944;5.304;2022-09-09T00:33:09;4.63;;;1.30;;
19251;SDS011;9760;50.944;5.304;2022-09-09T00:35:41;3.10;;;1.10;;
19251;SDS011;9760;50.944;5.304;2022-09-09T00:38:25;5.57;;;1.07;;
19251;SDS011;9760;50.944;5.304;2022-09-09T00:41:11;2.73;;;1.10;;
19251;SDS011;9760;50.944;5.304;2022-09-09T00:43:43;7.93;;;1.30;;
19251;SDS011;9760;50.944;5.304;2022-09-09T00:57:46;5.23;;;1.00;;
19251;SDS011;9760;50.944;5.304;2022-09-09T01:10:55;6.57;;;1.80;;
19251;SDS011;9760;50.944;5.304;2022-09-09T01:13:30;5.23;;;1.67;;
19251;SDS011;9760;50.944;5.304;2022-09-09T01:15:59;3.77;;;1.60;;
19251;SDS011;9760;50.944;5.304;2022-09-09T01:18:35;5.27;;;1.47;;
19251;SDS011;9760;50.944;5.304;2022-09-09T01:21:20;6.00;;;1.60;;
19251;SDS011;9760;50.944;5.304;2022-09-09T01:26:39;4.50;;;1.80;;
19251;SDS011;9760;50.944;5.304;2022-09-09T01:29:11;8.60;;;1.97;;
19251;SDS011;9760;50.944;5.304;2022-09-09T01:31:40;7.40;;;1.73;;
19251;SDS011;9760;50.944;5.304;2022-09-09T01:34:12;4.30;;;1.73;;
19251;SDS011;9760;50.944;5.304;2022-09-09T01:36:43;2.60;;;1.43;;
19251;SDS011;9760;50.944;5.304;2022-09-09T01:39:17;5.20;;;1.70;;
19251;SDS011;9760;50.944;5.304;2022-09-09T01:41:43;8.90;;;1.93;;
19251;SDS011;9760;50.944;5.304;2022-09-09T01:44:09;3.83;;;1.80;;
19251;SDS011;9760;50.944;5.304;2022-09-09T01:46:36;3.60;;;1.63;;
19251;SDS011;9760;50.944;5.304;2022-09-09T01:49:02;8.03;;;1.70;;
19251;SDS011;9760;50.944;5.304;2022-09-09T01:51:29;6.30;;;1.50;;
19251;SDS011;9760;50.944;5.304;2022-09-09T01:53:55;5.00;;;1.60;;
19251;SDS011;9760;50.944;5.304;2022-09-09T01:56:24;10.00;;;1.80;;
19251;SDS011;9760;50.944;5.304;2022-09-09T02:04:25;5.50;;;1.93;;
19251;SDS011;9760;50.944;5.304;2022-09-09T02:06:54;3.80;;;1.57;;
19251;SDS011;9760;50.944;5.304;2022-09-09T02:09:22;6.77;;;1.87;;
19251;SDS011;9760;50.944;5.304;2022-09-09T02:11:53;8.20;;;1.40;;
19251;SDS011;9760;50.944;5.304;2022-09-09T02:14:27;11.40;;;1.87;;
19251;SDS011;9760;50.944;5.304;2022-09-09T02:17:01;3.90;;;1.50;;
19251;SDS011;9760;50.944;5.304;2022-09-09T02:19:34;6.30;;;1.50;;
19251;SDS011;9760;50.944;5.304;2022-09-09T02:22:04;4.77;;;1.90;;
19251;SDS011;9760;50.944;5.304;2022-09-09T02:24:32;6.97;;;1.80;;
19251;SDS011;9760;50.944;5.304;2022-09-09T02:27:00;11.80;;;2.07;;
19251;SDS011;9760;50.944;5.304;2022-09-09T02:29:39;7.33;;;1.83;;
19251;SDS011;9760;50.944;5.304;2022-09-09T02:32:07;8.93;;;1.97;;
19251;SDS011;9760;50.944;5.304;2022-09-09T02:34:39;15.17;;;1.70;;
19251;SDS011;9760;50.944;5.304;2022-09-09T02:37:08;9.73;;;1.97;;
19251;SDS011;9760;50.944;5.304;2022-09-09T02:39:35;9.43;;;1.80;;
19251;SDS011;9760;50.944;5.304;2022-09-09T02:42:01;6.27;;;1.80;;
19251;SDS011;9760;50.944;5.304;2022-09-09T02:44:28;14.37;;;1.90;;
19251;SDS011;9760;50.944;5.304;2022-09-09T02:47:00;13.67;;;2.30;;
19251;SDS011;9760;50.944;5.304;2022-09-09T02:49:52;12.50;;;1.97;;
19251;SDS011;9760;50.944;5.304;2022-09-09T02:52:26;5.50;;;1.80;;
19251;SDS011;9760;50.944;5.304;2022-09-09T02:54:57;5.97;;;1.63;;
19251;SDS011;9760;50.944;5.304;2022-09-09T02:57:30;12.63;;;1.87;;
19251;SDS011;9760;50.944;5.304;2022-09-09T02:59:58;5.43;;;1.53;;
19251;SDS011;9760;50.944;5.304;2022-09-09T03:02:24;5.90;;;1.70;;
19251;SDS011;9760;50.944;5.304;2022-09-09T03:04:50;14.77;;;1.83;;
19251;SDS011;9760;50.944;5.304;2022-09-09T03:07:17;3.57;;;1.80;;
19251;SDS011;9760;50.944;5.304;2022-09-09T03:09:44;9.87;;;2.07;;
19251;SDS011;9760;50.944;5.304;2022-09-09T03:12:10;8.77;;;1.83;;
19251;SDS011;9760;50.944;5.304;2022-09-09T03:14:36;7.77;;;1.60;;
19251;SDS011;9760;50.944;5.304;2022-09-09T03:17:03;6.27;;;1.50;;
19251;SDS011;9760;50.944;5.304;2022-09-09T03:19:31;6.33;;;1.67;;
19251;SDS011;9760;50.944;5.304;2022-09-09T03:21:57;8.30;;;1.50;;
19251;SDS011;9760;50.944;5.304;2022-09-09T03:24:23;6.37;;;1.40;;
19251;SDS011;9760;50.944;5.304;2022-09-09T03:26:49;7.13;;;1.70;;
19251;SDS011;9760;50.944;5.304;2022-09-09T03:29:15;12.33;;;1.77;;
19251;SDS011;9760;50.944;5.304;2022-09-09T03:31:43;11.97;;;1.57;;
19251;SDS011;9760;50.944;5.304;2022-09-09T03:34:09;12.83;;;1.50;;
19251;SDS011;9760;50.944;5.304;2022-09-09T03:36:35;6.37;;;1.80;;
19251;SDS011;9760;50.944;5.304;2022-09-09T03:39:01;7.90;;;1.83;;
19251;SDS011;9760;50.944;5.304;2022-09-09T03:41:28;5.17;;;1.63;;
19251;SDS011;9760;50.944;5.304;2022-09-09T03:43:54;16.87;;;2.00;;
19251;SDS011;9760;50.944;5.304;2022-09-09T03:46:20;7.17;;;1.80;;
19251;SDS011;9760;50.944;5.304;2022-09-09T03:48:48;9.87;;;1.70;;
19251;SDS011;9760;50.944;5.304;2022-09-09T03:51:13;10.53;;;1.53;;
19251;SDS011;9760;50.944;5.304;2022-09-09T03:53:40;6.20;;;1.70;;
19251;SDS011;9760;50.944;5.304;2022-09-09T03:56:06;9.77;;;1.93;;
19251;SDS011;9760;50.944;5.304;2022-09-09T03:58:32;14.77;;;1.90;;
19251;SDS011;9760;50.944;5.304;2022-09-09T04:01:03;5.97;;;1.30;;
19251;SDS011;9760;50.944;5.304;2022-09-09T04:03:31;5.03;;;1.67;;
19251;SDS011;9760;50.944;5.304;2022-09-09T04:05:58;11.30;;;2.43;;
19251;SDS011;9760;50.944;5.304;2022-09-09T04:08:25;6.80;;;2.13;;
19251;SDS011;9760;50.944;5.304;2022-09-09T04:10:51;6.83;;;1.40;;
19251;SDS011;9760;50.944;5.304;2022-09-09T04:13:18;9.90;;;1.60;;
19251;SDS011;9760;50.944;5.304;2022-09-09T04:15:49;6.37;;;2.17;;
19251;SDS011;9760;50.944;5.304;2022-09-09T04:18:19;10.67;;;2.00;;
19251;SDS011;9760;50.944;5.304;2022-09-09T04:20:46;10.47;;;1.37;;
19251;SDS011;9760;50.944;5.304;2022-09-09T04:23:12;8.77;;;1.73;;
19251;SDS011;9760;50.944;5.304;2022-09-09T04:25:43;14.10;;;1.80;;
19251;SDS011;9760;50.944;5.304;2022-09-09T04:28:10;12.30;;;2.23;;
19251;SDS011;9760;50.944;5.304;2022-09-09T04:30:35;10.17;;;2.20;;
19251;SDS011;9760;50.944;5.304;2022-09-09T04:33:01;12.63;;;2.30;;
19251;SDS011;9760;50.944;5.304;2022-09-09T04:35:28;11.07;;;2.00;;
19251;SDS011;9760;50.944;5.304;2022-09-09T04:37:53;8.10;;;1.50;;
19251;SDS011;9760;50.944;5.304;2022-09-09T04:40:19;12.57;;;1.80;;
19251;SDS011;9760;50.944;5.304;2022-09-09T04:42:47;6.77;;;1.23;;
19251;SDS011;9760;50.944;5.304;2022-09-09T04:45:13;9.83;;;1.90;;
19251;SDS011;9760;50.944;5.304;2022-09-09T04:47:39;11.23;;;1.90;;
19251;SDS011;9760;50.944;5.304;2022-09-09T04:50:04;8.80;;;1.50;;
19251;SDS011;9760;50.944;5.304;2022-09-09T04:52:30;5.77;;;1.70;;
19251;SDS011;9760;50.944;5.304;2022-09-09T04:54:56;7.63;;;2.07;;
19251;SDS011;9760;50.944;5.304;2022-09-09T04:57:22;9.53;;;2.00;;
19251;SDS011;9760;50.944;5.304;2022-09-09T04:59:48;9.70;;;2.07;;
19251;SDS011;9760;50.944;5.304;2022-09-09T05:02:13;10.93;;;2.40;;
19251;SDS011;9760;50.944;5.304;2022-09-09T05:04:39;19.73;;;2.40;;
19251;SDS011;9760;50.944;5.304;2022-09-09T05:07:04;10.97;;;1.80;;
19251;SDS011;9760;50.944;5.304;2022-09-09T05:09:31;6.20;;;1.53;;
19251;SDS011;9760;50.944;5.304;2022-09-09T05:11:57;8.97;;;1.63;;
19251;SDS011;9760;50.944;5.304;2022-09-09T05:14:23;8.50;;;1.80;;
19251;SDS011;9760;50.944;5.304;2022-09-09T05:16:48;13.03;;;1.77;;
19251;SDS011;9760;50.944;5.304;2022-09-09T05:19:14;11.83;;;1.97;;
19251;SDS011;9760;50.944;5.304;2022-09-09T05:21:40;12.60;;;1.80;;
19251;SDS011;9760;50.944;5.304;2022-09-09T05:24:06;17.87;;;2.17;;
19251;SDS011;9760;50.944;5.304;2022-09-09T05:26:32;11.90;;;2.50;;
19251;SDS011;9760;50.944;5.304;2022-09-09T05:28:58;13.13;;;1.87;;
19251;SDS011;9760;50.944;5.304;2022-09-09T05:31:25;10.73;;;2.30;;
19251;SDS011;9760;50.944;5.304;2022-09-09T05:33:52;15.17;;;2.40;;
19251;SDS011;9760;50.944;5.304;2022-09-09T05:36:19;11.77;;;2.10;;
19251;SDS011;9760;50.944;5.304;2022-09-09T05:38:46;14.63;;;1.93;;
19251;SDS011;9760;50.944;5.304;2022-09-09T05:41:13;7.53;;;1.93;;
19251;SDS011;9760;50.944;5.304;2022-09-09T05:43:42;7.50;;;1.80;;
19251;SDS011;9760;50.944;5.304;2022-09-09T05:46:16;14.20;;;2.20;;
19251;SDS011;9760;50.944;5.304;2022-09-09T05:48:44;9.60;;;2.50;;
19251;SDS011;9760;50.944;5.304;2022-09-09T05:51:17;5.77;;;1.60;;
19251;SDS011;9760;50.944;5.304;2022-09-09T05:53:47;10.73;;;1.97;;
19251;SDS011;9760;50.944;5.304;2022-09-09T05:56:17;12.43;;;1.60;;
19251;SDS011;9760;50.944;5.304;2022-09-09T05:58:45;17.03;;;1.87;;
19251;SDS011;9760;50.944;5.304;2022-09-09T06:01:15;12.23;;;1.57;;
19251;SDS011;9760;50.944;5.304;2022-09-09T06:03:43;10.63;;;2.30;;
19251;SDS011;9760;50.944;5.304;2022-09-09T06:06:10;12.73;;;2.47;;
19251;SDS011;9760;50.944;5.304;2022-09-09T06:08:39;16.27;;;3.23;;
19251;SDS011;9760;50.944;5.304;2022-09-09T06:11:07;18.23;;;3.93;;
19251;SDS011;9760;50.944;5.304;2022-09-09T06:13:34;8.47;;;2.63;;
19251;SDS011;9760;50.944;5.304;2022-09-09T06:16:03;11.67;;;2.60;;
19251;SDS011;9760;50.944;5.304;2022-09-09T06:18:32;12.57;;;2.50;;
19251;SDS011;9760;50.944;5.304;2022-09-09T06:21:02;11.70;;;2.87;;
19251;SDS011;9760;50.944;5.304;2022-09-09T06:23:29;14.13;;;2.43;;
19251;SDS011;9760;50.944;5.304;2022-09-09T06:28:27;17.13;;;2.40;;
19251;SDS011;9760;50.944;5.304;2022-09-09T06:31:00;11.63;;;2.37;;
19251;SDS011;9760;50.944;5.304;2022-09-09T06:33:26;11.20;;;2.10;;
19251;SDS011;9760;50.944;5.304;2022-09-09T06:35:55;10.03;;;1.93;;
19251;SDS011;9760;50.944;5.304;2022-09-09T06:38:22;12.40;;;2.70;;
19251;SDS011;9760;50.944;5.304;2022-09-09T06:40:54;12.20;;;2.10;;
19251;SDS011;9760;50.944;5.304;2022-09-09T06:43:29;6.80;;;1.80;;
19251;SDS011;9760;50.944;5.304;2022-09-09T06:45:56;10.57;;;1.77;;
19251;SDS011;9760;50.944;5.304;2022-09-09T06:48:26;13.50;;;3.03;;
19251;SDS011;9760;50.944;5.304;2022-09-09T06:53:37;7.77;;;1.83;;
19251;SDS011;9760;50.944;5.304;2022-09-09T06:58:34;8.77;;;1.90;;
19251;SDS011;9760;50.944;5.304;2022-09-09T07:01:08;16.90;;;2.00;;
19251;SDS011;9760;50.944;5.304;2022-09-09T07:03:34;10.13;;;2.93;;
19251;SDS011;9760;50.944;5.304;2022-09-09T07:06:00;12.23;;;2.20;;
19251;SDS011;9760;50.944;5.304;2022-09-09T07:08:26;10.43;;;1.90;;
19251;SDS011;9760;50.944;5.304;2022-09-09T07:10:53;8.37;;;1.40;;
19251;SDS011;9760;50.944;5.304;2022-09-09T07:13:25;11.97;;;1.97;;
19251;SDS011;9760;50.944;5.304;2022-09-09T07:15:52;10.37;;;1.67;;
19251;SDS011;9760;50.944;5.304;2022-09-09T07:18:19;13.83;;;3.03;;
19251;SDS011;9760;50.944;5.304;2022-09-09T07:20:54;11.53;;;2.20;;
19251;SDS011;9760;50.944;5.304;2022-09-09T07:23:21;16.77;;;2.80;;
19251;SDS011;9760;50.944;5.304;2022-09-09T07:25:47;11.17;;;2.40;;
19251;SDS011;9760;50.944;5.304;2022-09-09T07:28:13;13.00;;;2.30;;
19251;SDS011;9760;50.944;5.304;2022-09-09T07:30:39;9.90;;;2.07;;
19251;SDS011;9760;50.944;5.304;2022-09-09T07:33:06;10.93;;;2.43;;
19251;SDS011;9760;50.944;5.304;2022-09-09T07:35:31;10.00;;;1.97;;
19251;SDS011;9760;50.944;5.304;2022-09-09T07:37:57;13.10;;;2.40;;
19251;SDS011;9760;50.944;5.304;2022-09-09T07:40:23;17.80;;;2.83;;
19251;SDS011;9760;50.944;5.304;2022-09-09T07:42:49;9.00;;;1.50;;
19251;SDS011;9760;50.944;5.304;2022-09-09T07:45:15;7.13;;;1.33;;
19251;SDS011;9760;50.944;5.304;2022-09-09T07:47:41;8.53;;;1.60;;
19251;SDS011;9760;50.944;5.304;2022-09-09T07:50:07;7.90;;;2.00;;
19251;SDS011;9760;50.944;5.304;2022-09-09T07:52:34;9.83;;;1.60;;
19251;SDS011;9760;50.944;5.304;2022-09-09T07:55:01;7.23;;;1.80;;
19251;SDS011;9760;50.944;5.304;2022-09-09T07:57:30;11.63;;;1.60;;
19251;SDS011;9760;50.944;5.304;2022-09-09T07:59:56;12.10;;;1.93;;
19251;SDS011;9760;50.944;5.304;2022-09-09T08:02:23;8.17;;;2.30;;
19251;SDS011;9760;50.944;5.304;2022-09-09T08:04:50;10.53;;;1.80;;
19251;SDS011;9760;50.944;5.304;2022-09-09T08:07:16;14.00;;;3.17;;
19251;SDS011;9760;50.944;5.304;2022-09-09T08:09:42;10.87;;;1.93;;
19251;SDS011;9760;50.944;5.304;2022-09-09T08:12:08;9.50;;;2.23;;
19251;SDS011;9760;50.944;5.304;2022-09-09T08:14:35;10.67;;;1.83;;
19251;SDS011;9760;50.944;5.304;2022-09-09T08:17:01;6.13;;;1.87;;
19251;SDS011;9760;50.944;5.304;2022-09-09T08:19:27;10.13;;;1.90;;
19251;SDS011;9760;50.944;5.304;2022-09-09T08:21:54;9.47;;;1.80;;
19251;SDS011;9760;50.944;5.304;2022-09-09T08:24:20;8.67;;;1.60;;
19251;SDS011;9760;50.944;5.304;2022-09-09T08:26:48;10.43;;;1.40;;
19251;SDS011;9760;50.944;5.304;2022-09-09T08:29:14;13.27;;;2.07;;
19251;SDS011;9760;50.944;5.304;2022-09-09T08:34:11;6.77;;;1.73;;
19251;SDS011;9760;50.944;5.304;2022-09-09T08:36:41;9.37;;;1.60;;
19251;SDS011;9760;50.944;5.304;2022-09-09T08:39:09;9.13;;;2.00;;
19251;SDS011;9760;50.944;5.304;2022-09-09T08:50:19;10.13;;;1.70;;
19251;SDS011;9760;50.944;5.304;2022-09-09T08:55:40;8.43;;;2.00;;
19251;SDS011;9760;50.944;5.304;2022-09-09T08:58:09;12.20;;;2.13;;
19251;SDS011;9760;50.944;5.304;2022-09-09T09:09:17;11.03;;;1.90;;
19251;SDS011;9760;50.944;5.304;2022-09-09T09:11:53;9.40;;;1.80;;
19251;SDS011;9760;50.944;5.304;2022-09-09T09:14:26;9.47;;;1.40;;
19251;SDS011;9760;50.944;5.304;2022-09-09T09:17:12;7.47;;;1.60;;
19251;SDS011;9760;50.944;5.304;2022-09-09T09:19:49;6.17;;;1.90;;
19251;SDS011;9760;50.944;5.304;2022-09-09T09:27:35;5.90;;;1.73;;
19251;SDS011;9760;50.944;5.304;2022-09-09T09:30:15;7.50;;;1.30;;
19251;SDS011;9760;50.944;5.304;2022-09-09T09:35:33;13.90;;;1.80;;
19251;SDS011;9760;50.944;5.304;2022-09-09T09:37:59;8.07;;;1.53;;
19251;SDS011;9760;50.944;5.304;2022-09-09T09:40:26;10.37;;;1.90;;
19251;SDS011;9760;50.944;5.304;2022-09-09T09:47:57;7.00;;;1.53;;
19251;SDS011;9760;50.944;5.304;2022-09-09T09:50:31;6.33;;;1.63;;
19251;SDS011;9760;50.944;5.304;2022-09-09T09:53:02;5.10;;;1.53;;
19251;SDS011;9760;50.944;5.304;2022-09-09T09:55:30;3.37;;;1.00;;
19251;SDS011;9760;50.944;5.304;2022-09-09T09:58:05;10.10;;;1.67;;
19251;SDS011;9760;50.944;5.304;2022-09-09T10:00:32;7.67;;;1.53;;
19251;SDS011;9760;50.944;5.304;2022-09-09T10:03:00;5.40;;;1.50;;
19251;SDS011;9760;50.944;5.304;2022-09-09T10:05:29;12.33;;;1.93;;
19251;SDS011;9760;50.944;5.304;2022-09-09T10:08:15;9.67;;;1.80;;
19251;SDS011;9760;50.944;5.304;2022-09-09T10:13:27;9.93;;;2.30;;
19251;SDS011;9760;50.944;5.304;2022-09-09T10:16:09;13.60;;;2.23;;
19251;SDS011;9760;50.944;5.304;2022-09-09T10:26:58;8.67;;;1.90;;
19251;SDS011;9760;50.944;5.304;2022-09-09T10:32:45;17.23;;;3.03;;
19251;SDS011;9760;50.944;5.304;2022-09-09T10:35:35;11.23;;;2.33;;
19251;SDS011;9760;50.944;5.304;2022-09-09T10:46:12;13.63;;;2.80;;
19251;SDS011;9760;50.944;5.304;2022-09-09T11:00:18;12.43;;;3.70;;
19251;SDS011;9760;50.944;5.304;2022-09-09T11:02:56;21.30;;;3.70;;
19251;SDS011;9760;50.944;5.304;2022-09-09T11:05:44;15.70;;;3.80;;
19251;SDS011;9760;50.944;5.304;2022-09-09T11:08:20;9.57;;;3.10;;
19251;SDS011;9760;50.944;5.304;2022-09-09T11:19:05;12.43;;;3.73;;
19251;SDS011;9760;50.944;5.304;2022-09-09T11:21:46;7.10;;;2.50;;
19251;SDS011;9760;50.944;5.304;2022-09-09T11:24:26;10.80;;;3.03;;
19251;SDS011;9760;50.944;5.304;2022-09-09T11:26:54;13.27;;;2.63;;
19251;SDS011;9760;50.944;5.304;2022-09-09T11:40:34;9.83;;;2.30;;
19251;SDS011;9760;50.944;5.304;2022-09-09T11:43:01;15.30;;;3.50;;
19251;SDS011;9760;50.944;5.304;2022-09-09T11:45:29;10.27;;;2.10;;
19251;SDS011;9760;50.944;5.304;2022-09-09T11:47:57;10.80;;;2.20;;
19251;SDS011;9760;50.944;5.304;2022-09-09T11:52:49;8.90;;;1.63;;
19251;SDS011;9760;50.944;5.304;2022-09-09T11:55:26;6.93;;;1.50;;
19251;SDS011;9760;50.944;5.304;2022-09-09T11:58:02;8.83;;;1.90;;
19251;SDS011;9760;50.944;5.304;2022-09-09T12:00:34;12.57;;;2.30;;
19251;SDS011;9760;50.944;5.304;2022-09-09T12:03:00;7.90;;;2.10;;
19251;SDS011;9760;50.944;5.304;2022-09-09T12:05:36;9.40;;;2.00;;
19251;SDS011;9760;50.944;5.304;2022-09-09T12:08:05;11.70;;;2.50;;
19251;SDS011;9760;50.944;5.304;2022-09-09T12:10:35;8.77;;;2.10;;
19251;SDS011;9760;50.944;5.304;2022-09-09T12:13:15;7.07;;;1.90;;
19251;SDS011;9760;50.944;5.304;2022-09-09T12:15:48;12.10;;;2.23;;
19251;SDS011;9760;50.944;5.304;2022-09-09T12:23:47;11.00;;;1.83;;
19251;SDS011;9760;50.944;5.304;2022-09-09T12:26:22;6.33;;;1.60;;
19251;SDS011;9760;50.944;5.304;2022-09-09T12:29:14;5.13;;;1.50;;
19251;SDS011;9760;50.944;5.304;2022-09-09T12:31:59;7.73;;;1.50;;
19251;SDS011;9760;50.944;5.304;2022-09-09T12:37:24;6.63;;;1.43;;
19251;SDS011;9760;50.944;5.304;2022-09-09T12:42:43;10.27;;;1.60;;
19251;SDS011;9760;50.944;5.304;2022-09-09T12:45:19;3.30;;;1.27;;
19251;SDS011;9760;50.944;5.304;2022-09-09T12:48:00;2.40;;;1.13;;
19251;SDS011;9760;50.944;5.304;2022-09-09T12:50:30;6.23;;;1.33;;
19251;SDS011;9760;50.944;5.304;2022-09-09T12:52:58;6.10;;;1.47;;
19251;SDS011;9760;50.944;5.304;2022-09-09T12:55:31;3.80;;;1.70;;
19251;SDS011;9760;50.944;5.304;2022-09-09T12:58:03;8.03;;;2.57;;
19251;SDS011;9760;50.944;5.304;2022-09-09T13:00:31;8.93;;;2.23;;
19251;SDS011;9760;50.944;5.304;2022-09-09T13:02:59;9.07;;;2.50;;
19251;SDS011;9760;50.944;5.304;2022-09-09T13:05:28;6.63;;;1.53;;
19251;SDS011;9760;50.944;5.304;2022-09-09T13:08:02;7.10;;;1.50;;
19251;SDS011;9760;50.944;5.304;2022-09-09T13:10:30;4.40;;;1.53;;
19251;SDS011;9760;50.944;5.304;2022-09-09T13:13:03;11.83;;;2.30;;
19251;SDS011;9760;50.944;5.304;2022-09-09T13:15:37;7.90;;;2.17;;
19251;SDS011;9760;50.944;5.304;2022-09-09T13:18:04;4.73;;;1.40;;
19251;SDS011;9760;50.944;5.304;2022-09-09T13:20:36;9.87;;;2.13;;
19251;SDS011;9760;50.944;5.304;2022-09-09T13:23:02;7.67;;;1.40;;
19251;SDS011;9760;50.944;5.304;2022-09-09T13:25:28;10.67;;;2.30;;
19251;SDS011;9760;50.944;5.304;2022-09-09T13:28:04;11.07;;;1.73;;
19251;SDS011;9760;50.944;5.304;2022-09-09T13:30:43;3.07;;;1.30;;
19251;SDS011;9760;50.944;5.304;2022-09-09T13:33:29;5.23;;;1.20;;
19251;SDS011;9760;50.944;5.304;2022-09-09T13:36:03;3.37;;;1.10;;
19251;SDS011;9760;50.944;5.304;2022-09-09T13:38:37;7.47;;;1.63;;
19251;SDS011;9760;50.944;5.304;2022-09-09T13:41:07;6.63;;;1.40;;
19251;SDS011;9760;50.944;5.304;2022-09-09T13:43:35;5.90;;;1.43;;
19251;SDS011;9760;50.944;5.304;2022-09-09T13:46:23;6.53;;;1.40;;
19251;SDS011;9760;50.944;5.304;2022-09-09T13:48:54;6.47;;;1.30;;
19251;SDS011;9760;50.944;5.304;2022-09-09T13:51:29;6.53;;;1.53;;
19251;SDS011;9760;50.944;5.304;2022-09-09T13:53:59;6.87;;;2.23;;
19251;SDS011;9760;50.944;5.304;2022-09-09T13:56:25;6.83;;;2.00;;
19251;SDS011;9760;50.944;5.304;2022-09-09T13:58:51;5.80;;;1.57;;
19251;SDS011;9760;50.944;5.304;2022-09-09T14:01:16;2.87;;;1.00;;
19251;SDS011;9760;50.944;5.304;2022-09-09T14:03:42;3.30;;;1.00;;
19251;SDS011;9760;50.944;5.304;2022-09-09T14:06:08;5.60;;;1.10;;
19251;SDS011;9760;50.944;5.304;2022-09-09T14:08:35;5.03;;;1.20;;
19251;SDS011;9760;50.944;5.304;2022-09-09T14:11:02;7.10;;;1.40;;
19251;SDS011;9760;50.944;5.304;2022-09-09T14:13:29;4.47;;;1.13;;
19251;SDS011;9760;50.944;5.304;2022-09-09T14:15:54;3.97;;;1.07;;
19251;SDS011;9760;50.944;5.304;2022-09-09T14:18:20;4.73;;;1.27;;
19251;SDS011;9760;50.944;5.304;2022-09-09T14:20:47;11.63;;;1.60;;
19251;SDS011;9760;50.944;5.304;2022-09-09T14:23:13;6.77;;;1.50;;
19251;SDS011;9760;50.944;5.304;2022-09-09T14:25:41;6.87;;;1.10;;
19251;SDS011;9760;50.944;5.304;2022-09-09T14:28:08;2.87;;;1.03;;
19251;SDS011;9760;50.944;5.304;2022-09-09T14:30:36;7.27;;;1.50;;
19251;SDS011;9760;50.944;5.304;2022-09-09T14:33:03;6.43;;;1.20;;
19251;SDS011;9760;50.944;5.304;2022-09-09T14:35:29;2.77;;;1.67;;
19251;SDS011;9760;50.944;5.304;2022-09-09T14:37:54;11.13;;;2.00;;
19251;SDS011;9760;50.944;5.304;2022-09-09T14:40:21;7.03;;;1.13;;
19251;SDS011;9760;50.944;5.304;2022-09-09T14:42:47;4.70;;;0.90;;
19251;SDS011;9760;50.944;5.304;2022-09-09T14:45:13;5.33;;;0.90;;
19251;SDS011;9760;50.944;5.304;2022-09-09T14:47:39;3.30;;;1.10;;
19251;SDS011;9760;50.944;5.304;2022-09-09T14:50:05;3.53;;;1.10;;
19251;SDS011;9760;50.944;5.304;2022-09-09T14:52:31;5.77;;;1.40;;
19251;SDS011;9760;50.944;5.304;2022-09-09T14:54:56;5.63;;;0.90;;
19251;SDS011;9760;50.944;5.304;2022-09-09T14:57:22;4.00;;;1.20;;
19251;SDS011;9760;50.944;5.304;2022-09-09T14:59:47;2.87;;;0.80;;
19251;SDS011;9760;50.944;5.304;2022-09-09T15:02:15;3.53;;;1.07;;
19251;SDS011;9760;50.944;5.304;2022-09-09T15:04:41;3.53;;;1.00;;
19251;SDS011;9760;50.944;5.304;2022-09-09T15:07:07;5.77;;;1.00;;
19251;SDS011;9760;50.944;5.304;2022-09-09T15:09:33;3.50;;;0.80;;
19251;SDS011;9760;50.944;5.304;2022-09-09T15:11:58;3.70;;;1.30;;
19251;SDS011;9760;50.944;5.304;2022-09-09T15:14:25;6.40;;;1.20;;
19251;SDS011;9760;50.944;5.304;2022-09-09T15:16:51;3.20;;;1.17;;
19251;SDS011;9760;50.944;5.304;2022-09-09T15:19:16;6.93;;;1.07;;
19251;SDS011;9760;50.944;5.304;2022-09-09T15:21:42;5.83;;;1.07;;
19251;SDS011;9760;50.944;5.304;2022-09-09T15:24:08;5.67;;;1.20;;
19251;SDS011;9760;50.944;5.304;2022-09-09T15:26:34;7.90;;;1.43;;
19251;SDS011;9760;50.944;5.304;2022-09-09T15:29:01;4.60;;;1.10;;
19251;SDS011;9760;50.944;5.304;2022-09-09T15:31:28;3.50;;;1.03;;
19251;SDS011;9760;50.944;5.304;2022-09-09T15:33:56;5.80;;;1.10;;
19251;SDS011;9760;50.944;5.304;2022-09-09T15:36:27;7.97;;;1.20;;
19251;SDS011;9760;50.944;5.304;2022-09-09T15:38:58;3.47;;;1.37;;
19251;SDS011;9760;50.944;5.304;2022-09-09T15:41:25;4.73;;;1.30;;
19251;SDS011;9760;50.944;5.304;2022-09-09T15:43:52;4.60;;;0.90;;
19251;SDS011;9760;50.944;5.304;2022-09-09T15:48:51;4.17;;;0.93;;
19251;SDS011;9760;50.944;5.304;2022-09-09T15:51:17;3.53;;;1.10;;
19251;SDS011;9760;50.944;5.304;2022-09-09T15:53:43;4.40;;;1.20;;
19251;SDS011;9760;50.944;5.304;2022-09-09T15:56:10;4.53;;;1.77;;
19251;SDS011;9760;50.944;5.304;2022-09-09T15:58:36;4.10;;;1.37;;
19251;SDS011;9760;50.944;5.304;2022-09-09T16:01:05;6.10;;;1.40;;
19251;SDS011;9760;50.944;5.304;2022-09-09T16:03:36;4.07;;;0.90;;
19251;SDS011;9760;50.944;5.304;2022-09-09T16:06:03;8.73;;;1.10;;
19251;SDS011;9760;50.944;5.304;2022-09-09T16:08:33;5.77;;;1.30;;
19251;SDS011;9760;50.944;5.304;2022-09-09T16:11:06;5.17;;;1.13;;
19251;SDS011;9760;50.944;5.304;2022-09-09T16:13:35;7.40;;;1.03;;
19251;SDS011;9760;50.944;5.304;2022-09-09T16:16:02;3.97;;;1.20;;
19251;SDS011;9760;50.944;5.304;2022-09-09T16:18:33;2.77;;;1.33;;
19251;SDS011;9760;50.944;5.304;2022-09-09T16:21:03;2.43;;;1.00;;
19251;SDS011;9760;50.944;5.304;2022-09-09T16:23:30;3.57;;;1.10;;
19251;SDS011;9760;50.944;5.304;2022-09-09T16:25:57;4.57;;;1.27;;
19251;SDS011;9760;50.944;5.304;2022-09-09T16:28:23;7.50;;;1.27;;
19251;SDS011;9760;50.944;5.304;2022-09-09T16:30:49;2.60;;;0.90;;
19251;SDS011;9760;50.944;5.304;2022-09-09T16:33:15;4.43;;;0.90;;
19251;SDS011;9760;50.944;5.304;2022-09-09T16:35:42;6.40;;;1.00;;
19251;SDS011;9760;50.944;5.304;2022-09-09T16:38:08;5.63;;;1.33;;
19251;SDS011;9760;50.944;5.304;2022-09-09T16:40:34;4.53;;;0.87;;
19251;SDS011;9760;50.944;5.304;2022-09-09T16:43:00;4.93;;;1.10;;
19251;SDS011;9760;50.944;5.304;2022-09-09T16:45:26;3.33;;;0.80;;
19251;SDS011;9760;50.944;5.304;2022-09-09T16:47:52;3.73;;;0.90;;
19251;SDS011;9760;50.944;5.304;2022-09-09T16:50:18;2.97;;;0.93;;
19251;SDS011;9760;50.944;5.304;2022-09-09T16:52:44;4.77;;;1.03;;
19251;SDS011;9760;50.944;5.304;2022-09-09T16:55:10;4.47;;;0.90;;
19251;SDS011;9760;50.944;5.304;2022-09-09T16:57:35;3.43;;;1.00;;
19251;SDS011;9760;50.944;5.304;2022-09-09T17:00:02;4.90;;;1.40;;
19251;SDS011;9760;50.944;5.304;2022-09-09T17:02:30;7.10;;;2.60;;
19251;SDS011;9760;50.944;5.304;2022-09-09T17:04:56;6.67;;;1.60;;
19251;SDS011;9760;50.944;5.304;2022-09-09T17:07:22;7.83;;;1.90;;
19251;SDS011;9760;50.944;5.304;2022-09-09T17:09:47;4.17;;;1.10;;
19251;SDS011;9760;50.944;5.304;2022-09-09T17:12:13;6.90;;;2.00;;
19251;SDS011;9760;50.944;5.304;2022-09-09T17:14:41;8.50;;;1.50;;
19251;SDS011;9760;50.944;5.304;2022-09-09T17:17:06;3.73;;;0.97;;
19251;SDS011;9760;50.944;5.304;2022-09-09T17:19:32;6.33;;;1.40;;
19251;SDS011;9760;50.944;5.304;2022-09-09T17:21:58;6.00;;;1.00;;
19251;SDS011;9760;50.944;5.304;2022-09-09T17:24:25;5.23;;;1.40;;
19251;SDS011;9760;50.944;5.304;2022-09-09T17:26:53;5.53;;;1.27;;
19251;SDS011;9760;50.944;5.304;2022-09-09T17:29:20;6.47;;;1.17;;
19251;SDS011;9760;50.944;5.304;2022-09-09T17:31:46;7.73;;;1.07;;
19251;SDS011;9760;50.944;5.304;2022-09-09T17:34:12;8.00;;;1.00;;
19251;SDS011;9760;50.944;5.304;2022-09-09T17:36:37;2.27;;;0.97;;
19251;SDS011;9760;50.944;5.304;2022-09-09T17:39:03;1.40;;;0.60;;
19251;SDS011;9760;50.944;5.304;2022-09-09T17:41:34;8.70;;;1.17;;
19251;SDS011;9760;50.944;5.304;2022-09-09T17:44:02;4.77;;;1.13;;